Time;durP1;ratioP1;P1;durP2;ratioP2;P2;SDS_P1;SDS_P2;PMS_P1;PMS_P2;Temp;Humidity;BMP_temperature;BMP_pressure;BME280_temperature;BME280_humidity;BME280_pressure;Samples;Min_cycle;Max_cycle;Signal;HPM_P1;HPM_P2
2022/08/29 00:02:09;;;;;;;;;1.00;1.00;;;;;22.86;42.56;101205.50;5093551;28;49502;-83
2022/08/29 00:04:34;;;;;;;;;1.67;1.00;;;;;22.75;43.03;101177.88;5092867;28;59163;-83
2022/08/29 00:07:00;;;;;;;;;3.00;2.25;;;;;22.69;42.99;101177.94;5091051;28;44948;-82
2022/08/29 00:09:25;;;;;;;;;2.75;2.00;;;;;22.75;42.38;101185.91;5092199;28;45053;-83
2022/08/29 00:11:50;;;;;;;;;2.33;2.33;;;;;22.78;42.65;101196.63;5090635;28;48331;-82
2022/08/29 00:14:16;;;;;;;;;2.00;2.00;;;;;22.69;42.90;101176.13;5092219;28;51585;-82
2022/08/29 00:16:41;;;;;;;;;3.50;3.00;;;;;22.65;42.76;101177.94;5093471;28;45013;-81
2022/08/29 00:19:06;;;;;;;;;1.00;1.00;;;;;22.73;43.14;101191.28;5074097;28;48418;-81
2022/08/29 00:21:31;;;;;;;;;1.67;1.67;;;;;22.66;43.00;101182.44;5092815;28;46042;-81
2022/08/29 00:23:57;;;;;;;;;2.00;2.00;;;;;22.58;42.89;101176.22;5092619;28;45205;-81
2022/08/29 00:26:23;;;;;;;;;2.00;2.00;;;;;22.67;42.82;101196.72;5089464;28;44890;-81
2022/08/29 00:28:48;;;;;;;;;0.75;0.75;;;;;22.53;42.97;101171.81;5093225;28;44969;-81
2022/08/29 00:31:13;;;;;;;;;1.75;1.75;;;;;22.62;43.08;101193.19;5091041;28;45402;-82
2022/08/29 00:33:39;;;;;;;;;2.25;1.50;;;;;22.60;43.28;101194.97;5091815;28;45974;-82
2022/08/29 00:36:05;;;;;;;;;2.75;2.75;;;;;22.48;43.17;101179.88;5093089;28;45174;-82
2022/08/29 00:38:30;;;;;;;;;2.00;2.00;;;;;22.48;43.35;101185.25;5090639;28;44985;-82
2022/08/29 00:40:57;;;;;;;;;1.00;1.00;;;;;22.50;43.41;101199.50;5089762;28;45167;-81
2022/08/29 00:43:27;;;;;;;;;2.50;2.50;;;;;22.36;43.33;101166.56;5091289;28;46131;-81
2022/08/29 00:46:10;;;;;;;;;2.00;2.00;;;;;22.47;43.63;101193.28;5092522;28;45013;-81
2022/08/29 00:48:38;;;;;;;;;2.00;2.00;;;;;22.41;43.30;101188.84;5092426;28;44895;-81
2022/08/29 00:51:07;;;;;;;;;2.75;2.00;;;;;22.40;43.35;101192.44;5093473;28;45240;-81
2022/08/29 00:53:38;;;;;;;;;1.50;1.50;;;;;22.35;43.51;101187.09;5092014;28;45009;-81
2022/08/29 00:56:07;;;;;;;;;1.75;1.00;;;;;22.34;43.52;101185.31;5088548;28;45332;-81
2022/08/29 00:58:52;;;;;;;;;2.00;2.00;;;;;22.30;43.38;101190.72;5091094;28;44917;-81
2022/08/29 01:01:18;;;;;;;;;2.75;2.25;;;;;22.21;43.74;101177.38;5090885;28;45057;-82
2022/08/29 01:03:44;;;;;;;;;1.50;1.50;;;;;22.30;43.61;101196.06;5092465;28;46135;-81
2022/08/29 01:06:12;;;;;;;;;3.00;2.00;;;;;22.25;43.54;101193.41;5092421;28;45417;-81
2022/08/29 01:08:38;;;;;;;;;2.00;2.00;;;;;22.16;43.77;101180.09;5090664;28;44926;-81
2022/08/29 01:13:48;;;;;;;;;2.25;1.75;;;;;22.23;43.73;101181.84;5090887;28;45276;-81
2022/08/29 01:16:15;;;;;;;;;2.00;2.00;;;;;22.26;44.03;101188.94;5088615;28;45482;-81
2022/08/29 01:18:46;;;;;;;;;2.25;2.25;;;;;22.22;43.50;101189.91;5091712;28;44934;-81
2022/08/29 01:21:39;;;;;;;;;1.25;1.25;;;;;22.09;43.62;101165.81;5091500;28;45140;-81
2022/08/29 01:24:33;;;;;;;;;1.25;1.25;;;;;22.02;43.60;101156.06;5090681;28;46156;-81
2022/08/29 01:26:58;;;;;;;;;3.00;2.00;;;;;22.15;43.91;101178.31;5089627;28;45156;-82
2022/08/29 01:29:24;;;;;;;;;3.00;3.00;;;;;22.11;43.81;101171.19;5089846;28;45152;-82
2022/08/29 01:31:50;;;;;;;;;2.25;2.25;;;;;22.05;43.92;101171.19;5091939;28;45083;-82
2022/08/29 01:34:17;;;;;;;;;2.25;2.00;;;;;22.11;43.77;101180.09;5091570;28;45052;-82
2022/08/29 01:36:52;;;;;;;;;1.00;1.00;;;;;22.10;44.41;101189.00;5091630;28;45175;-81
2022/08/29 01:39:21;;;;;;;;;2.00;2.00;;;;;22.05;44.24;101172.09;5091209;28;44942;-82
2022/08/29 01:41:47;;;;;;;;;2.00;2.00;;;;;22.07;44.13;101186.38;5089755;28;45216;-82
2022/08/29 01:44:18;;;;;;;;;2.00;2.00;;;;;22.10;44.04;101186.34;5092408;28;45282;-82
2022/08/29 01:46:46;;;;;;;;;2.00;2.00;;;;;21.96;43.98;101158.75;5090722;28;45339;-82
2022/08/29 01:49:13;;;;;;;;;2.00;2.00;;;;;22.07;44.17;101177.44;5089470;28;45171;-81
2022/08/29 01:51:40;;;;;;;;;4.50;3.75;;;;;22.05;44.17;101174.75;5090598;28;45239;-81
2022/08/29 01:54:09;;;;;;;;;2.50;2.00;;;;;21.89;44.49;101143.63;5090925;28;45161;-82
2022/08/29 01:56:39;;;;;;;;;1.00;1.00;;;;;22.06;44.17;101172.97;5089833;28;45841;-83
2022/08/29 01:59:07;;;;;;;;;1.00;1.00;;;;;22.07;44.15;101178.34;5073919;28;45079;-83
2022/08/29 02:01:36;;;;;;;;;2.00;2.00;;;;;22.06;44.31;101172.97;5091665;28;44944;-82
2022/08/29 02:04:02;;;;;;;;;3.75;2.25;;;;;22.03;44.36;101164.97;5090586;28;45129;-81
2022/08/29 02:06:28;;;;;;;;;2.00;2.00;;;;;22.04;44.45;101166.75;5089389;28;45421;-82
2022/08/29 02:08:54;;;;;;;;;3.50;2.75;;;;;22.13;44.08;101172.09;5090665;28;44915;-81
2022/08/29 02:11:20;;;;;;;;;2.75;2.25;;;;;22.15;44.23;101172.94;5089076;28;44843;-83
2022/08/29 02:13:57;;;;;;;;;2.00;2.00;;;;;22.17;43.81;101164.91;5090241;28;45041;-82
2022/08/29 02:16:26;;;;;;;;;1.50;1.50;;;;;22.19;43.98;101168.47;5091338;28;45025;-82
2022/08/29 02:18:52;;;;;;;;;2.00;2.00;;;;;22.08;43.93;101152.44;5090924;28;45225;-82
2022/08/29 02:21:21;;;;;;;;;1.00;1.00;;;;;22.21;43.99;101174.69;5092516;27;45215;-82
2022/08/29 02:23:49;;;;;;;;;1.25;1.25;;;;;22.18;44.25;101172.06;5094042;28;45668;-82
2022/08/29 02:26:16;;;;;;;;;1.00;1.00;;;;;22.17;44.05;101165.81;5093303;28;45668;-82
2022/08/29 02:28:43;;;;;;;;;3.00;2.50;;;;;22.15;43.75;101164.91;5095041;28;45099;-82
2022/08/29 02:31:08;;;;;;;;;2.75;2.00;;;;;22.14;44.02;101158.69;5091507;28;45141;-81
2022/08/29 02:33:35;;;;;;;;;3.00;2.00;;;;;22.13;43.86;101156.03;5093073;28;46377;-82
2022/08/29 02:36:01;;;;;;;;;4.25;3.75;;;;;22.11;44.00;101160.47;5093778;28;45363;-82
2022/08/29 02:38:27;;;;;;;;;5.25;4.50;;;;;22.06;43.90;101148.88;5092792;28;44948;-82
2022/08/29 02:40:53;;;;;;;;;6.50;5.00;;;;;21.96;44.01;101139.13;5094153;28;44984;-82
2022/08/29 02:43:19;;;;;;;;;5.00;4.25;;;;;22.03;43.96;101155.16;5092531;28;45662;-82
2022/08/29 02:45:46;;;;;;;;;5.25;4.50;;;;;22.01;44.13;101158.72;5094152;28;45735;-82
2022/08/29 02:48:12;;;;;;;;;4.50;4.50;;;;;21.96;44.35;101152.50;5094287;28;45060;-82
2022/08/29 02:50:42;;;;;;;;;4.75;4.75;;;;;21.96;44.07;101160.53;5092276;28;45272;-83
2022/08/29 02:53:08;;;;;;;;;5.25;5.25;;;;;21.88;44.52;101149.91;5094163;28;45793;-83
2022/08/29 02:55:34;;;;;;;;;5.50;5.50;;;;;21.88;44.37;101152.56;5091323;28;45577;-82
2022/08/29 02:58:00;;;;;;;;;5.25;5.25;;;;;21.87;44.60;101159.72;5094496;28;44997;-82
2022/08/29 03:00:26;;;;;;;;;5.00;5.00;;;;;21.83;44.45;101149.03;5094583;28;45132;-82
2022/08/29 03:02:53;;;;;;;;;3.00;3.00;;;;;21.81;44.78;101150.81;5093737;28;45848;-83
2022/08/29 03:05:22;;;;;;;;;4.00;3.00;;;;;21.79;44.68;101155.28;5093258;28;45197;-83
2022/08/29 03:07:47;;;;;;;;;2.75;2.00;;;;;21.76;44.66;101149.94;5093834;28;45039;-82
2022/08/29 03:10:13;;;;;;;;;2.25;2.00;;;;;21.75;44.48;101150.84;5092147;28;44937;-81
2022/08/29 03:12:39;;;;;;;;;1.25;1.25;;;;;21.74;44.74;101154.44;5092991;28;46260;-81
2022/08/29 03:15:06;;;;;;;;;2.25;1.75;;;;;21.61;44.65;101129.50;5092373;28;45641;-83
2022/08/29 03:17:33;;;;;;;;;1.25;1.00;;;;;21.69;44.69;101133.03;5093997;28;45227;-81
2022/08/29 03:19:58;;;;;;;;;2.00;2.00;;;;;21.79;44.74;101147.25;5092289;28;44873;-81
2022/08/29 03:22:25;;;;;;;;;2.00;2.00;;;;;21.79;44.66;101148.16;5092469;28;45358;-83
2022/08/29 03:24:50;;;;;;;;;1.00;1.00;;;;;21.74;44.66;101141.03;5094145;28;45056;-83
2022/08/29 03:27:17;;;;;;;;;3.00;2.75;;;;;21.77;44.58;101149.94;5090055;28;45443;-83
2022/08/29 03:29:42;;;;;;;;;2.00;2.00;;;;;21.69;44.50;101132.16;5075622;28;45115;-82
2022/08/29 03:32:07;;;;;;;;;2.00;2.00;;;;;21.61;44.72;101119.69;5091425;28;45504;-83
2022/08/29 03:34:33;;;;;;;;;2.50;2.25;;;;;21.62;44.59;101123.25;5092095;28;52354;-83
2022/08/29 03:36:58;;;;;;;;;2.00;1.50;;;;;21.72;44.84;101154.41;5092262;28;45134;-81
2022/08/29 03:39:24;;;;;;;;;2.33;2.00;;;;;21.58;44.80;101126.84;5091972;28;45149;-83
2022/08/29 03:41:50;;;;;;;;;2.00;2.00;;;;;21.68;44.79;101139.28;5090432;28;45563;-82
2022/08/29 03:44:15;;;;;;;;;2.00;2.00;;;;;21.57;44.91;101128.63;5093751;28;45124;-83
2022/08/29 03:46:41;;;;;;;;;1.00;1.00;;;;;21.56;45.03;101126.84;5091421;28;45379;-83
2022/08/29 03:49:07;;;;;;;;;2.75;2.00;;;;;21.62;45.21;101140.22;5094020;28;45065;-83
2022/08/29 03:51:34;;;;;;;;;2.00;2.00;;;;;21.49;45.12;101116.19;5093767;28;45685;-82
2022/08/29 03:54:00;;;;;;;;;2.00;2.00;;;;;21.53;44.98;101136.69;5093455;28;45060;-83
2022/08/29 03:56:26;;;;;;;;;2.25;1.50;;;;;21.57;45.26;101142.00;5092378;28;44981;-83
2022/08/29 03:58:52;;;;;;;;;1.00;1.00;;;;;21.32;45.03;101098.41;5092097;28;45193;-83
2022/08/29 04:01:18;;;;;;;;;2.00;1.00;;;;;21.54;45.32;101142.03;5091127;28;46177;-83
2022/08/29 04:03:44;;;;;;;;;2.00;1.00;;;;;21.55;45.20;101151.81;5091091;28;45325;-82
2022/08/29 04:06:10;;;;;;;;;1.25;1.25;;;;;21.55;45.35;101146.47;5090550;28;45375;-83
2022/08/29 04:08:35;;;;;;;;;2.00;1.00;;;;;21.55;45.25;101143.78;5091903;28;44979;-83
2022/08/29 04:11:08;;;;;;;;;2.75;2.00;;;;;21.45;45.21;101126.00;5072302;28;47618;-83
2022/08/29 04:13:33;;;;;;;;;2.25;2.00;;;;;21.54;45.26;101136.69;5092812;28;45037;-82
2022/08/29 04:15:58;;;;;;;;;1.67;1.67;;;;;21.55;45.56;101133.09;5090564;28;51591;-83
2022/08/29 04:18:24;;;;;;;;;2.00;2.00;;;;;21.56;45.31;101142.88;5092965;28;44957;-83
2022/08/29 04:20:49;;;;;;;;;1.00;1.00;;;;;21.51;45.77;101142.03;5092789;28;45060;-82
2022/08/29 04:23:15;;;;;;;;;1.25;1.00;;;;;21.57;45.52;101151.81;5091648;28;45036;-83
2022/08/29 04:25:42;;;;;;;;;3.00;2.00;;;;;21.54;45.41;101147.38;5088475;28;45170;-82
2022/08/29 04:28:16;;;;;;;;;2.25;2.00;;;;;21.38;45.64;101140.31;5093453;28;45061;-83
2022/08/29 04:30:46;;;;;;;;;2.25;2.00;;;;;21.35;45.86;101145.66;5070847;28;46418;-83
2022/08/29 04:33:12;;;;;;;;;1.00;1.00;;;;;21.33;46.21;101134.97;5093248;28;45078;-82
2022/08/29 04:35:39;;;;;;;;;1.00;1.00;;;;;21.31;46.23;101149.22;5089815;28;45116;-83
2022/08/29 04:38:04;;;;;;;;;1.00;1.00;;;;;21.17;46.01;101130.50;5090074;28;45217;-83
2022/08/29 04:40:29;;;;;;;;;1.00;1.00;;;;;21.22;46.18;101139.41;5069975;28;66610;-83
2022/08/29 04:42:56;;;;;;;;;3.00;2.00;;;;;21.11;46.09;101126.06;5092792;27;45540;-83
2022/08/29 04:45:22;;;;;;;;;3.25;2.00;;;;;21.23;45.99;101151.91;5092087;28;45271;-83
2022/08/29 04:47:48;;;;;;;;;1.50;1.50;;;;;21.23;46.23;101151.00;5092976;28;45171;-82
2022/08/29 04:50:17;;;;;;;;;4.50;3.00;;;;;21.15;46.03;101144.78;5090255;28;45397;-83
2022/08/29 04:52:42;;;;;;;;;2.00;2.00;;;;;21.08;46.38;101131.44;5091984;28;44981;-83
2022/08/29 04:55:09;;;;;;;;;2.00;2.00;;;;;21.18;46.55;101161.72;5090852;28;45334;-82
2022/08/29 04:57:35;;;;;;;;;3.25;3.25;;;;;21.16;46.30;101155.47;5090389;28;45101;-82
2022/08/29 05:00:03;;;;;;;;;2.00;1.50;;;;;20.97;46.65;101137.69;5092314;28;45149;-83
2022/08/29 05:02:29;;;;;;;;;2.75;2.00;;;;;21.10;46.44;101164.41;5087097;28;45214;-83
2022/08/29 05:04:55;;;;;;;;;2.00;2.00;;;;;21.05;46.66;101160.84;5092037;28;57573;-82
2022/08/29 05:07:24;;;;;;;;;3.00;2.00;;;;;21.12;46.55;101169.72;5089003;28;45034;-83
2022/08/29 05:10:01;;;;;;;;;4.00;3.00;;;;;21.07;46.70;101172.41;5089355;28;47164;-83
2022/08/29 05:12:28;;;;;;;;;3.00;2.00;;;;;21.06;46.41;101175.97;5088080;28;45675;-82
2022/08/29 05:14:53;;;;;;;;;2.50;2.00;;;;;21.03;46.88;101178.69;5090157;28;44887;-82
2022/08/29 05:17:20;;;;;;;;;1.00;1.00;;;;;20.99;47.09;101168.88;5088158;28;45716;-83
2022/08/29 05:19:45;;;;;;;;;3.50;3.00;;;;;21.02;46.88;101174.19;5091298;28;46151;-83
2022/08/29 05:22:12;;;;;;;;;3.50;2.25;;;;;21.01;47.05;101176.88;5090011;28;45197;-83
2022/08/29 05:24:38;;;;;;;;;2.75;2.00;;;;;21.00;47.05;101175.13;5092458;28;44912;-82
2022/08/29 05:27:15;;;;;;;;;2.00;2.00;;;;;20.96;46.88;101182.22;5086422;28;45312;-83
2022/08/29 05:29:44;;;;;;;;;2.00;2.00;;;;;20.98;47.15;101183.09;5091604;28;47168;-82
2022/08/29 05:32:11;;;;;;;;;1.50;1.50;;;;;20.93;47.15;101187.56;5091877;28;45099;-82
2022/08/29 05:34:37;;;;;;;;;2.50;2.50;;;;;20.96;47.13;101181.34;5092115;28;44927;-83
2022/08/29 05:37:06;;;;;;;;;2.00;2.00;;;;;20.99;47.26;101200.06;5091996;28;44871;-83
2022/08/29 05:39:32;;;;;;;;;3.00;2.00;;;;;20.90;47.09;101187.59;5091277;28;45804;-83
2022/08/29 05:41:57;;;;;;;;;2.00;2.00;;;;;20.84;47.14;101183.16;5090594;28;45137;-83
2022/08/29 05:44:23;;;;;;;;;4.00;3.00;;;;;20.86;47.33;101185.81;5090216;28;45041;-83
2022/08/29 05:46:48;;;;;;;;;1.75;1.75;;;;;20.94;47.13;101196.50;5089017;28;45144;-82
2022/08/29 05:49:13;;;;;;;;;2.00;2.00;;;;;20.98;47.13;101203.59;5091930;28;45135;-82
2022/08/29 05:51:39;;;;;;;;;2.00;2.00;;;;;20.98;47.19;101207.16;5090260;28;45123;-83
2022/08/29 05:54:05;;;;;;;;;3.50;3.50;;;;;20.98;46.98;101207.16;5089851;27;45342;-82
2022/08/29 05:56:31;;;;;;;;;3.00;2.00;;;;;20.98;47.18;101209.84;5086541;28;45761;-82
2022/08/29 05:58:56;;;;;;;;;4.00;3.50;;;;;20.99;47.24;101211.63;5089614;28;45657;-83
2022/08/29 06:01:24;;;;;;;;;4.50;3.00;;;;;20.98;47.51;101207.16;5090567;28;45123;-83
2022/08/29 06:03:51;;;;;;;;;4.75;2.00;;;;;20.99;47.05;101219.66;5090926;28;44985;-82
2022/08/29 06:06:19;;;;;;;;;3.25;2.25;;;;;20.98;47.12;101212.50;5087337;28;45380;-83
2022/08/29 06:08:44;;;;;;;;;3.00;2.00;;;;;20.97;47.26;101204.50;5088910;28;45726;-83
2022/08/29 06:11:14;;;;;;;;;2.00;2.00;;;;;20.92;47.16;101198.28;5086151;28;57654;-82
2022/08/29 06:13:40;;;;;;;;;4.00;2.00;;;;;21.04;47.27;101217.88;5090819;28;44891;-83
2022/08/29 06:16:05;;;;;;;;;5.00;2.75;;;;;21.03;47.24;101205.41;5089045;28;45105;-82
2022/08/29 06:18:30;;;;;;;;;4.00;2.00;;;;;20.92;47.27;101192.94;5071568;28;46476;-82
2022/08/29 06:20:56;;;;;;;;;3.00;3.00;;;;;20.99;47.15;101200.94;5071044;28;67094;-83
2022/08/29 06:23:21;;;;;;;;;3.00;2.75;;;;;20.85;47.21;101186.72;5071119;28;45546;-83
2022/08/29 06:25:55;;;;;;;;;2.00;1.00;;;;;21.10;47.46;101230.34;5087909;28;54299;-83
2022/08/29 06:28:20;;;;;;;;;3.25;3.00;;;;;21.11;47.33;101226.75;5090932;28;45022;-83
2022/08/29 06:30:45;;;;;;;;;3.00;3.00;;;;;21.12;47.31;101234.78;5089136;28;45127;-83
2022/08/29 06:33:11;;;;;;;;;2.00;2.00;;;;;21.09;47.23;101229.44;5090648;28;55540;-83
2022/08/29 06:35:36;;;;;;;;;3.00;3.00;;;;;21.11;47.46;101232.13;5090659;28;54023;-82
2022/08/29 06:38:01;;;;;;;;;2.50;2.00;;;;;21.02;47.35;101216.06;5090780;28;45807;-82
2022/08/29 06:40:26;;;;;;;;;2.33;2.33;;;;;21.18;47.41;101236.56;5087524;28;50160;-83
2022/08/29 06:42:52;;;;;;;;;2.25;1.50;;;;;21.20;47.34;101239.25;5089336;28;45239;-83
2022/08/29 06:45:17;;;;;;;;;2.00;2.00;;;;;21.10;47.43;101215.19;5088908;28;58050;-83
2022/08/29 06:47:46;;;;;;;;;3.00;3.00;;;;;21.13;47.59;101214.28;5087402;28;45303;-82
2022/08/29 06:50:11;;;;;;;;;3.25;2.25;;;;;21.19;47.27;101219.63;5087252;28;45992;-83
2022/08/29 06:52:37;;;;;;;;;2.00;2.00;;;;;21.21;47.19;101219.63;5088432;28;45374;-83
2022/08/29 06:55:04;;;;;;;;;2.75;2.75;;;;;21.30;47.16;101230.31;5086254;28;45145;-82
2022/08/29 06:57:29;;;;;;;;;3.00;3.00;;;;;21.31;47.23;101234.78;5083257;28;45890;-83
2022/08/29 06:59:54;;;;;;;;;3.75;3.00;;;;;21.28;47.45;101226.72;5086914;28;45303;-82
2022/08/29 07:02:20;;;;;;;;;2.50;2.00;;;;;21.24;47.53;101220.53;5085728;28;46910;-83
2022/08/29 07:04:45;;;;;;;;;3.00;2.25;;;;;21.36;47.17;101231.22;5090190;28;45017;-82
2022/08/29 07:07:10;;;;;;;;;3.00;3.00;;;;;21.30;47.28;101216.94;5088255;28;45174;-83
2022/08/29 07:09:36;;;;;;;;;3.25;2.50;;;;;21.40;46.94;101236.56;5092174;28;45189;-83
2022/08/29 07:12:01;;;;;;;;;3.00;3.00;;;;;21.40;47.49;101237.44;5089216;28;45450;-82
2022/08/29 07:14:27;;;;;;;;;2.25;1.50;;;;;21.34;47.38;101221.44;5090005;28;45300;-82
2022/08/29 07:16:53;;;;;;;;;3.50;3.25;;;;;21.42;47.39;101235.66;5093732;28;45562;-82
2022/08/29 07:19:18;;;;;;;;;2.75;2.50;;;;;21.27;47.11;101216.94;5090958;28;45339;-82
2022/08/29 07:21:43;;;;;;;;;3.00;2.50;;;;;21.39;47.02;101238.34;5092069;28;44997;-83
2022/08/29 07:24:09;;;;;;;;;3.50;3.00;;;;;21.34;47.21;101234.81;5090438;28;45150;-83
2022/08/29 07:26:40;;;;;;;;;3.25;3.00;;;;;21.34;47.26;101226.78;5084743;28;45662;-83
2022/08/29 07:29:12;;;;;;;;;3.00;2.25;;;;;21.36;47.21;101231.22;5091393;28;45229;-82
2022/08/29 07:31:38;;;;;;;;;3.00;3.00;;;;;21.43;47.59;101233.88;5086694;28;45311;-83
2022/08/29 07:34:03;;;;;;;;;2.25;2.25;;;;;21.30;47.44;101216.94;5090293;28;45253;-83
2022/08/29 07:36:33;;;;;;;;;3.00;2.75;;;;;21.43;47.64;101232.13;5090461;28;46954;-83
2022/08/29 07:38:59;;;;;;;;;4.00;4.00;;;;;21.48;47.18;101237.44;5087631;28;45032;-83
2022/08/29 07:41:24;;;;;;;;;3.00;3.00;;;;;21.40;47.02;101216.06;5088361;28;45037;-81
2022/08/29 07:43:50;;;;;;;;;3.25;3.00;;;;;21.46;47.76;101223.19;5088570;28;44891;-82
2022/08/29 07:46:17;;;;;;;;;4.00;3.00;;;;;21.53;47.39;101232.97;5089668;28;54186;-82
2022/08/29 07:48:43;;;;;;;;;3.50;3.50;;;;;21.62;47.44;101241.88;5093468;28;45117;-83
2022/08/29 07:51:11;;;;;;;;;3.00;3.00;;;;;21.56;47.20;101225.81;5091284;28;45433;-82
2022/08/29 07:53:37;;;;;;;;;3.00;3.00;;;;;21.57;46.83;101221.34;5093405;28;44999;-82
2022/08/29 07:56:07;;;;;;;;;3.00;3.00;;;;;21.63;47.16;101227.59;5089111;28;45297;-83
2022/08/29 07:58:33;;;;;;;;;2.25;2.00;;;;;21.67;46.88;101232.91;5091943;28;45428;-82
2022/08/29 08:00:59;;;;;;;;;3.00;3.00;;;;;21.71;46.95;101219.53;5091392;28;45001;-82
2022/08/29 08:03:25;;;;;;;;;2.75;2.00;;;;;21.90;47.02;101242.66;5088657;28;45471;-83
2022/08/29 08:05:52;;;;;;;;;2.25;2.25;;;;;21.90;47.30;101226.59;5089625;28;45552;-83
2022/08/29 08:08:17;;;;;;;;;3.50;3.00;;;;;21.94;47.52;101234.63;5092554;28;45180;-83
2022/08/29 08:10:42;;;;;;;;;3.25;3.00;;;;;21.88;47.11;101217.69;5089468;28;44939;-83
2022/08/29 08:13:07;;;;;;;;;3.00;3.00;;;;;22.02;46.90;101228.34;5091506;28;51362;-83
2022/08/29 08:15:33;;;;;;;;;4.00;4.00;;;;;21.89;46.68;101198.06;5088857;28;45196;-82
2022/08/29 08:17:58;;;;;;;;;3.75;3.25;;;;;21.95;46.90;101204.28;5089715;27;45334;-82
2022/08/29 08:20:23;;;;;;;;;6.00;3.00;;;;;22.09;46.76;101231.88;5070644;28;45315;-82
2022/08/29 08:22:49;;;;;;;;;3.75;3.00;;;;;22.06;46.97;101215.81;5088537;28;45363;-82
2022/08/29 08:25:14;;;;;;;;;4.00;2.75;;;;;22.07;46.71;101213.13;5091442;28;45692;-83
2022/08/29 08:27:39;;;;;;;;;6.00;3.00;;;;;22.04;46.78;101202.44;5086855;28;44945;-83
2022/08/29 08:30:05;;;;;;;;;4.00;3.50;;;;;22.09;46.89;101208.66;5091410;28;45131;-82
2022/08/29 08:32:31;;;;;;;;;3.50;3.50;;;;;22.27;46.92;101225.56;5073104;28;45482;-82
2022/08/29 08:34:56;;;;;;;;;5.00;4.00;;;;;22.31;47.02;101227.31;5090259;28;47880;-83
2022/08/29 08:37:21;;;;;;;;;3.75;3.00;;;;;22.31;46.83;101225.50;5089397;28;44852;-82
2022/08/29 08:39:46;;;;;;;;;3.67;3.00;;;;;22.36;46.47;101236.19;5090103;28;51336;-83
2022/08/29 08:42:41;;;;;;;;;2.75;2.75;;;;;22.28;46.46;101221.97;5087035;28;45331;-83
2022/08/29 08:45:26;;;;;;;;;3.75;3.75;;;;;22.28;46.70;101211.28;5090878;28;45311;-83
2022/08/29 08:47:59;;;;;;;;;4.00;4.00;;;;;22.32;46.28;101219.28;5083530;28;46055;-83
2022/08/29 08:50:43;;;;;;;;;4.00;3.00;;;;;22.47;46.67;101222.75;5092607;28;45186;-82
2022/08/29 08:53:18;;;;;;;;;4.25;4.00;;;;;22.47;46.72;101217.41;5090110;28;44896;-82
2022/08/29 08:55:47;;;;;;;;;4.50;4.00;;;;;22.54;46.50;101228.06;5085732;28;45076;-83
2022/08/29 08:58:12;;;;;;;;;3.00;3.00;;;;;22.58;46.78;101232.50;5089289;28;45205;-83
2022/08/29 09:00:49;;;;;;;;;5.00;4.00;;;;;22.64;46.82;101232.44;5085989;28;45260;-82
2022/08/29 09:03:41;;;;;;;;;4.00;4.00;;;;;22.51;46.36;101209.34;5089343;28;45291;-82
2022/08/29 09:06:36;;;;;;;;;3.25;3.25;;;;;22.73;46.49;101234.16;5090316;28;46041;-83
2022/08/29 09:09:30;;;;;;;;;4.25;4.00;;;;;22.76;46.52;101233.25;5090736;28;45360;-82
2022/08/29 09:12:05;;;;;;;;;4.00;4.00;;;;;22.78;46.52;101226.09;5087764;28;45061;-82
2022/08/29 09:14:33;;;;;;;;;3.75;3.75;;;;;22.95;46.29;101224.19;5087117;28;45278;-82
2022/08/29 09:17:01;;;;;;;;;3.50;3.50;;;;;22.94;46.07;101213.47;5091572;28;45580;-83
2022/08/29 09:19:27;;;;;;;;;5.25;5.25;;;;;23.07;45.94;101228.56;5090366;28;45515;-83
2022/08/29 09:22:04;;;;;;;;;3.50;3.50;;;;;23.13;46.40;101217.78;5071243;28;44958;-83
2022/08/29 09:24:34;;;;;;;;;4.00;3.50;;;;;23.20;46.27;101222.16;5092285;28;45025;-83
2022/08/29 09:27:00;;;;;;;;;4.00;4.00;;;;;23.24;45.78;101209.63;5087683;28;45738;-83
2022/08/29 09:29:28;;;;;;;;;4.50;4.50;;;;;23.29;45.63;101223.88;5091525;28;45115;-83
2022/08/29 09:32:11;;;;;;;;;3.50;3.50;;;;;23.32;45.93;101222.06;5089327;28;45036;-83
2022/08/29 09:34:40;;;;;;;;;4.75;4.00;;;;;23.31;45.73;101214.03;5089693;28;45412;-83
2022/08/29 09:37:30;;;;;;;;;3.25;3.25;;;;;23.39;45.64;101222.88;5091004;28;45633;-83
2022/08/29 09:40:09;;;;;;;;;4.00;4.00;;;;;23.29;45.49;101195.25;5084426;28;45052;-83
2022/08/29 09:42:38;;;;;;;;;4.50;4.50;;;;;23.46;45.61;101227.28;5088237;28;45237;-83
2022/08/29 09:45:19;;;;;;;;;6.25;5.75;;;;;23.48;45.93;101219.22;5089662;28;45320;-83
2022/08/29 09:47:44;;;;;;;;;6.25;6.00;;;;;23.52;45.34;101215.59;5088805;28;45592;-81
2022/08/29 09:50:16;;;;;;;;;6.50;5.00;;;;;23.62;45.49;101215.47;5089318;28;45458;-82
2022/08/29 09:53:02;;;;;;;;;4.50;4.00;;;;;23.66;45.79;101211.88;5090543;28;45200;-83
2022/08/29 09:55:39;;;;;;;;;6.00;5.00;;;;;23.59;45.89;101188.66;5068489;28;45477;-82
2022/08/29 09:58:07;;;;;;;;;5.25;4.50;;;;;23.79;45.66;101212.63;5090483;28;45794;-83
2022/08/29 10:00:38;;;;;;;;;8.00;5.50;;;;;23.83;45.35;101208.09;5091080;28;45584;-83
2022/08/29 10:03:09;;;;;;;;;5.25;5.25;;;;;23.89;45.27;101216.97;5087818;28;45445;-82
2022/08/29 10:05:43;;;;;;;;;5.00;5.00;;;;;23.93;45.74;101209.75;5090922;28;44993;-83
2022/08/29 10:08:23;;;;;;;;;5.00;4.00;;;;;23.99;45.41;101209.69;5091473;28;46127;-82
2022/08/29 10:10:58;;;;;;;;;3.75;3.75;;;;;24.06;45.50;101210.47;5068547;28;45412;-82
2022/08/29 10:13:39;;;;;;;;;7.75;7.00;;;;;24.04;45.20;101189.03;5092085;28;45103;-82
2022/08/29 10:16:20;;;;;;;;;5.25;5.00;;;;;24.19;45.72;101212.97;5084620;28;45367;-82
2022/08/29 10:18:53;;;;;;;;;6.00;5.75;;;;;24.20;45.32;101208.50;5072883;28;47034;-82
2022/08/29 10:21:32;;;;;;;;;5.25;5.25;;;;;24.30;45.25;101210.13;5089722;28;45427;-83
2022/08/29 10:24:16;;;;;;;;;5.25;4.50;;;;;24.31;45.20;101201.16;5091109;28;44964;-81
2022/08/29 10:27:00;;;;;;;;;5.50;5.00;;;;;24.35;44.87;101204.69;5088826;28;45282;-82
2022/08/29 10:29:46;;;;;;;;;5.00;5.00;;;;;24.40;45.28;101194.81;5090578;28;45797;-82
2022/08/29 10:32:21;;;;;;;;;5.00;5.00;;;;;24.46;44.52;101189.31;5089902;28;45597;-82
2022/08/29 10:35:13;;;;;;;;;7.75;5.00;;;;;24.52;44.76;101183.84;5088116;28;45422;-82
2022/08/29 10:37:59;;;;;;;;;9.25;6.75;;;;;24.61;44.96;101186.38;5091209;28;44921;-83
2022/08/29 10:40:48;;;;;;;;;5.00;5.00;;;;;24.55;44.55;101189.19;5087619;28;45326;-82
2022/08/29 10:43:35;;;;;;;;;5.50;5.00;;;;;24.61;44.40;101194.44;5094192;28;45050;-83
2022/08/29 10:46:31;;;;;;;;;4.50;4.50;;;;;24.65;44.19;101182.75;5092041;28;45540;-82
2022/08/29 10:49:09;;;;;;;;;6.75;5.75;;;;;24.68;44.68;101177.31;5094057;28;44966;-81
2022/08/29 10:51:45;;;;;;;;;5.25;5.00;;;;;24.78;44.64;101175.38;5093169;28;46271;-83
2022/08/29 10:54:33;;;;;;;;;5.75;5.50;;;;;24.73;43.96;101144.06;5093616;28;45174;-84
2022/08/29 10:57:00;;;;;;;;;6.25;6.25;;;;;24.91;44.50;101174.22;5093254;28;45080;-82
2022/08/29 10:59:41;;;;;;;;;6.00;5.25;;;;;24.99;44.12;101179.47;5094290;28;45205;-82
2022/08/29 11:02:28;;;;;;;;;6.00;5.75;;;;;24.98;43.90;101164.25;5092657;28;45629;-82
2022/08/29 11:05:01;;;;;;;;;8.00;7.00;;;;;25.12;44.06;101174.78;5094387;28;45675;-82
2022/08/29 11:07:36;;;;;;;;;5.50;5.50;;;;;25.17;44.32;101170.19;5093202;28;45037;-81
2022/08/29 11:10:31;;;;;;;;;4.50;4.50;;;;;25.29;44.01;101178.06;5093985;28;44946;-83
2022/08/29 11:13:14;;;;;;;;;7.00;7.00;;;;;25.37;43.52;101180.56;5091677;28;45905;-82
2022/08/29 11:15:57;;;;;;;;;6.00;5.50;;;;;25.42;43.75;101174.22;5093981;28;45507;-83
2022/08/29 11:18:34;;;;;;;;;5.25;5.00;;;;;25.54;44.01;101175.75;5091923;28;45225;-82
2022/08/29 11:21:15;;;;;;;;;6.25;6.25;;;;;25.63;43.88;101172.88;5094725;28;44936;-81
2022/08/29 11:23:45;;;;;;;;;8.00;5.50;;;;;25.72;43.34;101174.50;5092494;28;45906;-82
2022/08/29 11:26:27;;;;;;;;;5.75;5.75;;;;;25.79;43.92;101172.59;5092657;28;45302;-83
2022/08/29 11:28:56;;;;;;;;;6.50;6.50;;;;;25.85;43.33;101177.84;5075663;28;44954;-82
2022/08/29 11:31:46;;;;;;;;;7.00;5.25;;;;;25.92;43.68;101164.22;5094152;28;45080;-82
2022/08/29 11:34:20;;;;;;;;;6.00;5.25;;;;;25.99;43.10;101171.22;5094371;28;45160;-82
2022/08/29 11:36:56;;;;;;;;;7.00;6.25;;;;;26.04;43.33;101173.81;5074842;28;45623;-83
2022/08/29 11:39:34;;;;;;;;;7.50;7.00;;;;;26.08;43.19;101162.06;5094180;28;45140;-83